Gulston, Kentucky
Current Conditions -  °F | °C
As of 8:55 PM on Saturday 20 Dec 2014 (Local Time) from KI35 Reporting Station
Scattered Clouds Scattered Clouds  
Wind Chill: 37°   Ceiling: Unl
Heat Index: 37°   Visibility: 10mi
Dew Point: 28°   Wind: 0mph
Humidity: 70%   Direction: NA
Pressure: 30.23"   Gusts: NA
Location:  36.79°N, 83.33°W
Report Text: KI35 210155Z AUTO 00000KT 10SM SCT041 03/M02 A3023 RMK AO1
Loading
Personal Weather Stations






























Interactive Weather Map New forecast layout! Learn more

10-Day Weather Forecast

Advertisements
Track Severe Weather on mobile